• Join FlightAware (Why Join?)
  • Login
  • US Flag 
03:02PM EDT


 

Airport Tracker/Info


-or-


 

Live Flight TrackerFlight Track Log ✈ TMC806 ✈ 19-Jun-2013 ✈ KOMA - KTEB

Flight Track Log - Related Links

Times and Time Zones

All times are in EDT time to prevent confusion due to time zone crossing. See the TMC806 flight status page for this flight to view local times or setup timezone preferences in your user account.

Time Position Orientation Groundspeed Altitude Reporting Facility
EDT Latitude Longitude Course Direction KTS MPH feet Rate Location/Type
05:55PM 41.2892 -95.8981 137° Southeast 158 182 1,600  Level Minneapolis Center
05:57PM 41.2503 -95.8497 137° Southeast 218 251 4,600 2,520 Climbing Minneapolis Center
05:58PM 41.2481 -95.7394 91° East 250 288 7,600 2,820 Climbing Minneapolis Center
05:59PM 41.2411 -95.6094 94° East 275 316 11,100 3,180 Climbing Minneapolis Center
06:00PM 41.2342 -95.4928 94° East 302 348 14,200 2,700 Climbing Minneapolis Center
06:01PM 41.2336 -95.3764 90° East 315 362 16,700 2,220 Climbing Minneapolis Center
06:02PM 41.2314 -95.2553 91° East 326 375 18,900 1,980 Climbing Minneapolis Center
06:03PM 41.2267 -95.1297 93° East 336 387 20,900 1,920 Climbing Minneapolis Center
06:04PM 41.2186 -94.9986 95° East 350 403 22,900 2,160 Climbing Minneapolis Center
06:05PM 41.2119 -94.8347 93° East 366 421 25,400 1,800 Climbing Minneapolis Center
06:06PM 41.2111 -94.6925 90° East 379 436 26,700 1,440 Climbing Minneapolis Center
06:07PM 41.2264 -94.5428 82° East 398 458 28,400 1,740 Climbing Minneapolis Center
06:08PM 41.2433 -94.3903 82° East 412 474 30,300 1,500 Climbing Minneapolis Center
06:09PM 41.2578 -94.2383 83° East 415 478 31,600 1,140 Climbing Minneapolis Center
06:10PM 41.2736 -94.0683 83° East 428 493 32,700 1,200 Climbing Minneapolis Center
06:11PM 41.2911 -93.9078 82° East 437 503 34,200 1,080 Climbing Minneapolis Center
06:12PM 41.3064 -93.7486 83° East 438 504 35,000 360 Climbing Minneapolis Center
06:13PM 41.3244 -93.5503 83° East 449 517 35,000  Level Minneapolis Center
06:14PM 41.3508 -93.3772 78° East 469 540 35,000  Level Minneapolis Center
06:15PM 41.3992 -93.2142 68° East 474 545 35,000  Level Minneapolis Center
06:16PM 41.4442 -93.0508 70° East 474 545 35,000  Level Minneapolis Center
06:18PM 41.4897 -92.8864 70° East 474 545 35,100 660 Climbing Minneapolis Center
06:19PM 41.5447 -92.6908 69° East 473 544 36,400 1,260 Climbing Minneapolis Center
06:19PM 41.5703 -92.5958 70° East 467 537 37,200 1,260 Climbing Chicago Center
06:20PM 41.6142 -92.4467 68° East 447 514 38,500 960 Climbing Chicago Center
06:21PM 41.6456 -92.2906 75° East 446 513 39,300 600 Climbing Chicago Center
06:22PM 41.6544 -92.1261 86° East 451 519 39,800 480 Climbing Chicago Center
06:23PM 41.6617 -91.9603 87° East 453 521 40,400 480 Climbing Chicago Center
06:24PM 41.6708 -91.7569 86° East 459 528 40,900 240 Climbing Chicago Center
06:25PM 41.6778 -91.5861 87° East 466 536 41,000  Climbing Chicago Center
06:26PM 41.6847 -91.4119 87° East 475 547 41,000  Level Chicago Center
06:27PM 41.6908 -91.2322 87° East 486 559 41,000  Level Chicago Center
06:28PM 41.6997 -91.0189 87° East 487 560 41,000  Level Chicago Center
06:29PM 41.7050 -90.8397 88° East 488 562 41,000  Level Chicago Center
06:31PM 41.7111 -90.6592 87° East 490 564 41,000  Level Chicago Center
06:32PM 41.7172 -90.4800 87° East 492 566 41,000  Level Chicago Center
06:33PM 41.7222 -90.2989 88° East 488 562 41,000  Level Chicago Center
06:34PM 41.7292 -90.0803 87° East 489 563 41,000  Level Chicago Center
06:35PM 41.7328 -89.8989 88° East 488 562 41,000  Level Chicago Center
06:36PM 41.7381 -89.7169 88° East 488 562 41,000  Level Chicago Center
06:37PM 41.7428 -89.5286 88° East 492 566 41,000  Level Chicago Center
06:38PM 41.7461 -89.3489 89° East 489 563 41,000  Level Chicago Center
06:39PM 41.7475 -89.1689 89° East 486 559 41,000  Level Chicago Center
06:40PM 41.7528 -88.9519 88° East 488 562 41,000  Level Chicago Center
06:41PM 41.7558 -88.7706 89° East 489 563 41,000  Level Chicago Center
06:42PM 41.7603 -88.5850 88° East 492 566 41,000  Level Chicago Center
06:43PM 41.7611 -88.4047 90° East 490 564 41,000  Level Chicago Center
06:44PM 41.7639 -88.2219 89° East 488 562 41,000  Level Chicago Center
06:45PM 41.7650 -88.0406 89° East 487 560 41,000  Level Chicago Center
06:46PM 41.7675 -87.8211 89° East 488 562 41,000  Level Chicago Center
06:47PM 41.7681 -87.6400 90° East 486 559 41,000  Level Chicago Center
06:48PM 41.7689 -87.4581 90° East 488 562 41,000  Level Chicago Center
06:49PM 41.7694 -87.2797 90° East 484 557 41,000  Level Chicago Center
06:50PM 41.7694 -87.1006 90° East 482 555 41,000  Level Chicago Center
06:51PM 41.7692 -86.9222 90° East 481 554 41,000  Level Chicago Center
06:52PM 41.7686 -86.7081 90° East 481 554 41,000  Level Chicago Center
06:53PM 41.7678 -86.5581 90° East 480 552 41,000  Level Chicago Center
06:54PM 41.7686 -86.3453 90° East 478 550 41,000  Level Chicago Center
06:55PM 41.7828 -86.1686 84° East 476 548 41,000  Level Chicago Center
06:56PM 41.8014 -85.9953 82° East 472 543 41,000  Level Chicago Center
06:57PM 41.8200 -85.8192 82° East 474 545 41,000  Level Chicago Center
06:58PM 41.8378 -85.6422 82° East 475 547 41,000  Level Chicago Center
06:59PM 41.8561 -85.4647 82° East 475 547 41,000  Level Chicago Center
07:01PM 41.8725 -85.2872 83° East 471 542 41,000  Level Chicago Center
07:02PM 41.8947 -85.0761 82° East 474 545 41,000  Level Chicago Center
07:03PM 41.9114 -84.9019 83° East 472 543 41,000  Level Chicago Center
07:04PM 41.9292 -84.7261 82° East 474 545 41,000  Level Chicago Center
07:05PM 41.9461 -84.5528 82° East 469 540 41,000  Level Chicago Center
07:06PM 41.9608 -84.3792 83° East 469 540 41,000  Level Chicago Center
07:06PM 41.9594 -84.2581 91° East 464 534 41,000  Level Cleveland Center
07:07PM 41.9608 -84.0794 89° East 464 534 41,000  Level Cleveland Center
07:08PM 41.9639 -83.9036 89° East 464 534 41,000  Level Cleveland Center
07:09PM 41.9625 -83.7306 91° East 464 534 41,000  Level Cleveland Center
07:10PM 41.9653 -83.5489 89° East 469 540 41,000  Level Cleveland Center
07:11PM 41.9672 -83.3900 89° East 478 550 41,000  Level Cleveland Center
07:12PM 41.9678 -83.1917 90° East 478 550 41,000  Level Cleveland Center
07:13PM 41.9675 -83.0128 90° East 478 550 41,000  Level Cleveland Center
07:14PM 41.9669 -82.8342 90° East 478 550 41,000  Level Cleveland Center
07:15PM 41.9703 -82.6694 88° East 478 550 41,000  Level Cleveland Center
07:16PM 41.9669 -82.4906 91° East 478 550 41,000  Level Cleveland Center
07:17PM 41.9700 -82.3092 89° East 478 550 41,000  Level Cleveland Center
07:18PM 41.9686 -82.1136 90° East 478 550 41,000  Level Cleveland Center
07:19PM 41.9667 -81.9347 91° East 478 550 41,000  Level Cleveland Center
07:20PM 41.9644 -81.7533 91° East 478 550 41,000  Level Cleveland Center
07:21PM 41.9639 -81.5717 90° East 478 550 41,000  Level Cleveland Center
07:22PM 41.9633 -81.3903 90° East 478 550 41,000  Level Cleveland Center
07:23PM 41.9603 -81.2253 91° East 478 550 41,000  Level Cleveland Center
07:24PM 41.9569 -81.0411 91° East 478 550 41,000  Level Cleveland Center
07:25PM 41.9533 -80.8594 91° East 483 556 41,000  Level Cleveland Center
07:26PM 41.9494 -80.6781 92° East 483 556 41,000  Level Cleveland Center
07:27PM 41.9475 -80.4994 91° East 483 556 41,000  Level Cleveland Center
07:28PM 41.9431 -80.3153 92° East 478 550 41,000  Level Cleveland Center
07:29PM 41.9403 -80.1169 91° East 478 550 41,000  Level Cleveland Center
07:30PM 41.9353 -79.9356 92° East 478 550 41,000  Level Cleveland Center
07:31PM 41.9319 -79.7542 91° East 478 550 41,000  Level Cleveland Center
07:32PM 41.9264 -79.5758 92° East 478 550 41,000  Level Cleveland Center
07:33PM 41.9206 -79.3944 92° East 478 550 41,000  Level Cleveland Center
07:34PM 41.9164 -79.2103 92° East 478 550 41,000  Level Cleveland Center
07:35PM 41.9097 -79.0264 93° East 483 556 41,000  Level Cleveland Center
07:36PM 41.9053 -78.8478 92° East 483 556 41,000  Level Cleveland Center
07:37PM 41.8981 -78.6611 93° East 483 556 41,000  Level Cleveland Center
07:38PM 41.8908 -78.4800 93° East 488 562 41,000 -180 Level Cleveland Center
07:39PM 41.8850 -78.2933 92° East 488 562 40,700 -1,440 Descending Cleveland Center
07:41PM 41.8683 -77.9264 93° East 488 562 36,600 -1,920 Descending New York Center
07:42PM 41.8375 -77.7450 103° East 493 567 35,000 -840 Descending New York Center
07:43PM 41.7931 -77.5761 109° East 499 574 35,000  Level New York Center
07:44PM 41.7444 -77.4042 111° Southeast 482 555 35,000 -180 Level New York Center
07:45PM 41.7050 -77.2475 109° East 487 560 34,700 -480 Descending New York Center
07:46PM 41.6603 -77.0764 109° East 492 566 34,100 -780 Descending New York Center
07:47PM 41.6125 -76.9111 111° Southeast 480 552 33,200 -960 Descending New York Center
07:48PM 41.5672 -76.7406 109° East 480 552 32,300 -960 Descending New York Center
07:49PM 41.5139 -76.5528 111° Southeast 480 552 31,300 -1,080 Descending New York Center
07:50PM 41.4700 -76.3831 109° East 480 552 30,200 -1,740 Descending New York Center
07:51PM 41.4253 -76.2242 111° Southeast 485 558 27,800 -2,640 Descending New York Center
07:52PM 41.3786 -76.0628 111° Southeast 478 550 25,000 -2,940 Descending New York Center
07:53PM 41.3372 -75.9131 110° East 449 517 22,100 -2,760 Descending New York Center
07:54PM 41.2953 -75.7719 112° Southeast 428 493 19,500 -2,520 Descending New York Center
07:55PM 41.2550 -75.6364 112° Southeast 408 470 17,100 -2,580 Descending New York Center
07:56PM 41.2050 -75.4839 114° Southeast 401 461 14,400 -2,340 Descending New York Center
07:57PM 41.1639 -75.3625 114° Southeast 386 444 12,500 -1,980 Descending New York Center
07:58PM 41.1247 -75.2497 115° Southeast 350 403 10,500 -1,860 Descending New York Center
07:59PM 41.0967 -75.1597 112° Southeast 307 353 8,900 -1,560 Descending New York Center
08:00PM 41.0628 -75.0611 114° Southeast 298 343 7,400 -1,440 Descending New York Center
08:01PM 41.0308 -74.9683 115° Southeast 293 337 6,000 -1,080 Descending New York Center
08:02PM 40.9800 -74.8747 126° Southeast 281 323 5,300 -840 Descending New York Center
08:03PM 40.9367 -74.7950 126° Southeast 281 323 4,400 -720 Descending New York Center
08:04PM 40.8894 -74.7156 128° Southeast 271 312 3,900 -420 Descending New York Center
08:05PM 40.8439 -74.6414 129° Southeast 271 312 3,600 -540 Descending New York Center
08:06PM 40.8167 -74.5833 122° Southeast 266 306 3,100 -420 Descending New York TRACON
08:07PM 40.7667 -74.5167 135° Southeast 267 307 3,000 -60 Descending New York TRACON
08:08PM 40.7333 -74.4333 118° Southeast 257 296 3,000  Level New York TRACON
08:09PM 40.7167 -74.3667 108° East 212 244 3,100 -300 Climbing New York TRACON
08:10PM 40.7167 -74.2833 90° East 210 242 2,400 -720 Descending New York TRACON
08:11PM 40.7500 -74.2167 57° Northeast 205 236 1,700 -480 Descending New York TRACON
08:12PM 40.7833 -74.1667 49° Northeast 181 208 1,500 -300 Descending New York TRACON
08:13PM 40.8167 -74.1167 49° Northeast 160 184 1,200 -600 Descending New York TRACON
08:14PM 40.8333 -74.0833 57° Northeast 134 154 400 -840 Descending New York TRACON
08:16PM 40.8500 -74.0500 79° East  Level FlightAware Approximate
08:23PM 40.8501 -74.0608 79° East  Level Estimated